Terminal Aerodrome Forecast
Issued by NWS Bismarck, ND

Home | Current Version | Previous Version | Graphics & Text | Print | Product List | Glossary On
Versions: 1 2 3 4 5 6 7 8 9 10 11 12 13 14 15 16
956
FTUS43 KBIS 160521
TAFBIS
TAF
KBIS 160521Z 1606/1706 VRB03KT P6SM FEW150
     FM161100 18004KT P6SM SKC WS020/23030KT
     FM161400 20005KT P6SM SKC WS020/27030KT
     FM161700 26012KT P6SM SKC
     FM162000 28014G22KT P6SM SKC
     FM170100 28006KT P6SM SKC=

USA.gov is the U.S. government's official web portal to all federal, state and local government web resources and services.